sensor_id;sensor_type;location;lat;lon;timestamp;P1;durP1;ratioP1;P2;durP2;ratioP2
34459;SDS011;20704;51.260;22.558;2023-02-11T00:01:28;28.73;;;13.53;;
34459;SDS011;20704;51.260;22.558;2023-02-11T00:03:32;28.13;;;12.90;;
34459;SDS011;20704;51.260;22.558;2023-02-11T00:05:35;34.03;;;13.40;;
34459;SDS011;20704;51.260;22.558;2023-02-11T00:07:37;30.10;;;12.70;;
34459;SDS011;20704;51.260;22.558;2023-02-11T00:09:40;25.60;;;12.67;;
34459;SDS011;20704;51.260;22.558;2023-02-11T00:11:43;31.20;;;14.00;;
34459;SDS011;20704;51.260;22.558;2023-02-11T00:13:46;32.47;;;13.53;;
34459;SDS011;20704;51.260;22.558;2023-02-11T00:15:48;33.33;;;13.57;;
34459;SDS011;20704;51.260;22.558;2023-02-11T00:17:52;27.77;;;14.27;;
34459;SDS011;20704;51.260;22.558;2023-02-11T00:19:54;32.50;;;14.37;;
34459;SDS011;20704;51.260;22.558;2023-02-11T00:21:58;28.27;;;13.70;;
34459;SDS011;20704;51.260;22.558;2023-02-11T00:24:01;30.13;;;14.80;;
34459;SDS011;20704;51.260;22.558;2023-02-11T00:26:04;25.60;;;13.13;;
34459;SDS011;20704;51.260;22.558;2023-02-11T00:28:13;28.83;;;14.25;;
34459;SDS011;20704;51.260;22.558;2023-02-11T00:30:16;28.93;;;13.83;;
34459;SDS011;20704;51.260;22.558;2023-02-11T00:32:19;26.33;;;13.17;;
34459;SDS011;20704;51.260;22.558;2023-02-11T00:34:22;30.40;;;13.80;;
34459;SDS011;20704;51.260;22.558;2023-02-11T00:36:24;36.07;;;15.43;;
34459;SDS011;20704;51.260;22.558;2023-02-11T00:38:28;31.97;;;14.57;;
34459;SDS011;20704;51.260;22.558;2023-02-11T00:40:31;32.37;;;15.07;;
34459;SDS011;20704;51.260;22.558;2023-02-11T00:42:33;27.60;;;13.73;;
34459;SDS011;20704;51.260;22.558;2023-02-11T00:44:39;31.13;;;14.97;;
34459;SDS011;20704;51.260;22.558;2023-02-11T00:46:41;28.40;;;13.07;;
34459;SDS011;20704;51.260;22.558;2023-02-11T00:48:44;28.97;;;15.13;;
34459;SDS011;20704;51.260;22.558;2023-02-11T00:50:47;30.67;;;14.10;;
34459;SDS011;20704;51.260;22.558;2023-02-11T00:52:49;27.27;;;13.90;;
34459;SDS011;20704;51.260;22.558;2023-02-11T00:54:52;27.07;;;12.00;;
34459;SDS011;20704;51.260;22.558;2023-02-11T00:56:54;24.50;;;12.67;;
34459;SDS011;20704;51.260;22.558;2023-02-11T00:58:57;27.47;;;12.50;;
34459;SDS011;20704;51.260;22.558;2023-02-11T01:01:00;27.17;;;13.20;;
34459;SDS011;20704;51.260;22.558;2023-02-11T01:03:02;27.57;;;12.60;;
34459;SDS011;20704;51.260;22.558;2023-02-11T01:05:05;28.07;;;12.67;;
34459;SDS011;20704;51.260;22.558;2023-02-11T01:07:08;37.93;;;13.37;;
34459;SDS011;20704;51.260;22.558;2023-02-11T01:09:10;28.57;;;12.97;;
34459;SDS011;20704;51.260;22.558;2023-02-11T01:11:14;25.83;;;11.77;;
34459;SDS011;20704;51.260;22.558;2023-02-11T01:13:18;32.97;;;13.43;;
34459;SDS011;20704;51.260;22.558;2023-02-11T01:15:21;29.13;;;11.93;;
34459;SDS011;20704;51.260;22.558;2023-02-11T01:17:24;21.63;;;11.40;;
34459;SDS011;20704;51.260;22.558;2023-02-11T01:19:26;35.77;;;13.77;;
34459;SDS011;20704;51.260;22.558;2023-02-11T01:21:29;25.73;;;11.27;;
34459;SDS011;20704;51.260;22.558;2023-02-11T01:23:31;37.70;;;13.80;;
34459;SDS011;20704;51.260;22.558;2023-02-11T01:25:34;23.07;;;11.90;;
34459;SDS011;20704;51.260;22.558;2023-02-11T01:27:37;33.53;;;13.87;;
34459;SDS011;20704;51.260;22.558;2023-02-11T01:29:39;28.57;;;12.00;;
34459;SDS011;20704;51.260;22.558;2023-02-11T01:31:42;23.30;;;11.67;;
34459;SDS011;20704;51.260;22.558;2023-02-11T01:33:44;26.77;;;12.30;;
34459;SDS011;20704;51.260;22.558;2023-02-11T01:35:47;28.23;;;13.83;;
34459;SDS011;20704;51.260;22.558;2023-02-11T01:37:51;30.53;;;13.67;;
34459;SDS011;20704;51.260;22.558;2023-02-11T01:39:53;29.93;;;12.97;;
34459;SDS011;20704;51.260;22.558;2023-02-11T01:41:56;26.13;;;11.87;;
34459;SDS011;20704;51.260;22.558;2023-02-11T01:44:20;27.20;;;12.10;;
34459;SDS011;20704;51.260;22.558;2023-02-11T01:46:33;28.57;;;12.30;;
34459;SDS011;20704;51.260;22.558;2023-02-11T01:48:38;29.67;;;13.67;;
34459;SDS011;20704;51.260;22.558;2023-02-11T01:50:47;25.90;;;13.15;;
34459;SDS011;20704;51.260;22.558;2023-02-11T01:52:53;30.67;;;13.33;;
34459;SDS011;20704;51.260;22.558;2023-02-11T01:55:16;28.77;;;12.40;;
34459;SDS011;20704;51.260;22.558;2023-02-11T01:57:37;29.13;;;12.20;;
34459;SDS011;20704;51.260;22.558;2023-02-11T01:59:45;24.27;;;10.93;;
34459;SDS011;20704;51.260;22.558;2023-02-11T02:01:59;28.23;;;12.13;;
34459;SDS011;20704;51.260;22.558;2023-02-11T02:04:05;29.57;;;10.83;;
34459;SDS011;20704;51.260;22.558;2023-02-11T02:06:21;27.27;;;12.23;;
34459;SDS011;20704;51.260;22.558;2023-02-11T02:09:10;22.97;;;11.70;;
34459;SDS011;20704;51.260;22.558;2023-02-11T02:11:09;28.87;;;13.07;;
34459;SDS011;20704;51.260;22.558;2023-02-11T02:13:12;23.87;;;10.73;;
34459;SDS011;20704;51.260;22.558;2023-02-11T02:15:22;29.17;;;11.80;;
34459;SDS011;20704;51.260;22.558;2023-02-11T02:17:30;22.57;;;11.37;;
34459;SDS011;20704;51.260;22.558;2023-02-11T02:20:02;22.17;;;10.50;;
34459;SDS011;20704;51.260;22.558;2023-02-11T02:27:18;21.43;;;11.83;;
34459;SDS011;20704;51.260;22.558;2023-02-11T02:34:55;20.83;;;10.17;;
34459;SDS011;20704;51.260;22.558;2023-02-11T02:37:18;25.70;;;11.60;;
34459;SDS011;20704;51.260;22.558;2023-02-11T02:39:28;23.23;;;10.27;;
34459;SDS011;20704;51.260;22.558;2023-02-11T02:41:34;24.60;;;10.57;;
34459;SDS011;20704;51.260;22.558;2023-02-11T02:43:41;23.30;;;9.57;;
34459;SDS011;20704;51.260;22.558;2023-02-11T02:45:49;25.33;;;10.70;;
34459;SDS011;20704;51.260;22.558;2023-02-11T02:47:52;25.57;;;10.40;;
34459;SDS011;20704;51.260;22.558;2023-02-11T02:49:55;23.13;;;10.83;;
34459;SDS011;20704;51.260;22.558;2023-02-11T03:00:04;22.97;;;11.30;;
34459;SDS011;20704;51.260;22.558;2023-02-11T03:02:32;25.03;;;10.67;;
34459;SDS011;20704;51.260;22.558;2023-02-11T03:09:27;23.27;;;12.20;;
34459;SDS011;20704;51.260;22.558;2023-02-11T03:11:48;29.43;;;13.30;;
34459;SDS011;20704;51.260;22.558;2023-02-11T03:13:50;26.97;;;12.27;;
34459;SDS011;20704;51.260;22.558;2023-02-11T03:15:55;24.80;;;12.50;;
34459;SDS011;20704;51.260;22.558;2023-02-11T03:17:59;25.93;;;11.73;;
34459;SDS011;20704;51.260;22.558;2023-02-11T03:20:04;27.00;;;12.17;;
34459;SDS011;20704;51.260;22.558;2023-02-11T03:22:23;30.73;;;13.67;;
34459;SDS011;20704;51.260;22.558;2023-02-11T03:24:32;27.47;;;12.33;;
34459;SDS011;20704;51.260;22.558;2023-02-11T03:26:39;22.07;;;11.83;;
34459;SDS011;20704;51.260;22.558;2023-02-11T03:30:54;28.03;;;11.53;;
34459;SDS011;20704;51.260;22.558;2023-02-11T03:33:17;24.57;;;11.30;;
34459;SDS011;20704;51.260;22.558;2023-02-11T03:35:49;20.35;;;9.85;;
34459;SDS011;20704;51.260;22.558;2023-02-11T03:40:05;19.13;;;11.10;;
34459;SDS011;20704;51.260;22.558;2023-02-11T03:42:12;21.63;;;10.63;;
34459;SDS011;20704;51.260;22.558;2023-02-11T03:44:16;21.00;;;10.87;;
34459;SDS011;20704;51.260;22.558;2023-02-11T03:46:22;22.07;;;11.20;;
34459;SDS011;20704;51.260;22.558;2023-02-11T03:48:37;26.27;;;12.68;;
34459;SDS011;20704;51.260;22.558;2023-02-11T03:50:45;26.77;;;13.20;;
34459;SDS011;20704;51.260;22.558;2023-02-11T03:52:49;27.30;;;12.30;;
34459;SDS011;20704;51.260;22.558;2023-02-11T03:54:54;30.90;;;12.13;;
34459;SDS011;20704;51.260;22.558;2023-02-11T03:56:59;34.57;;;13.10;;
34459;SDS011;20704;51.260;22.558;2023-02-11T03:59:02;30.73;;;12.97;;
34459;SDS011;20704;51.260;22.558;2023-02-11T04:01:05;30.17;;;15.57;;
34459;SDS011;20704;51.260;22.558;2023-02-11T04:03:10;27.30;;;12.83;;
34459;SDS011;20704;51.260;22.558;2023-02-11T04:05:14;26.57;;;11.23;;
34459;SDS011;20704;51.260;22.558;2023-02-11T04:07:16;30.43;;;12.90;;
34459;SDS011;20704;51.260;22.558;2023-02-11T04:09:19;27.43;;;12.97;;
34459;SDS011;20704;51.260;22.558;2023-02-11T04:11:21;30.07;;;13.70;;
34459;SDS011;20704;51.260;22.558;2023-02-11T04:13:24;28.33;;;13.57;;
34459;SDS011;20704;51.260;22.558;2023-02-11T04:15:26;32.33;;;15.60;;
34459;SDS011;20704;51.260;22.558;2023-02-11T04:17:29;37.27;;;14.73;;
34459;SDS011;20704;51.260;22.558;2023-02-11T04:19:32;26.27;;;13.93;;
34459;SDS011;20704;51.260;22.558;2023-02-11T04:21:35;28.97;;;13.67;;
34459;SDS011;20704;51.260;22.558;2023-02-11T04:23:37;27.07;;;13.33;;
34459;SDS011;20704;51.260;22.558;2023-02-11T04:25:39;30.47;;;14.53;;
34459;SDS011;20704;51.260;22.558;2023-02-11T04:27:42;30.30;;;13.53;;
34459;SDS011;20704;51.260;22.558;2023-02-11T04:32:07;26.87;;;14.00;;
34459;SDS011;20704;51.260;22.558;2023-02-11T04:34:11;29.57;;;12.90;;
34459;SDS011;20704;51.260;22.558;2023-02-11T04:36:13;27.97;;;12.60;;
34459;SDS011;20704;51.260;22.558;2023-02-11T04:38:16;26.67;;;12.83;;
34459;SDS011;20704;51.260;22.558;2023-02-11T04:40:18;29.23;;;13.40;;
34459;SDS011;20704;51.260;22.558;2023-02-11T04:42:21;27.67;;;12.93;;
34459;SDS011;20704;51.260;22.558;2023-02-11T04:44:23;35.30;;;13.87;;
34459;SDS011;20704;51.260;22.558;2023-02-11T04:46:26;32.33;;;14.30;;
34459;SDS011;20704;51.260;22.558;2023-02-11T04:48:28;27.17;;;13.03;;
34459;SDS011;20704;51.260;22.558;2023-02-11T04:50:31;31.00;;;13.53;;
34459;SDS011;20704;51.260;22.558;2023-02-11T04:52:33;31.07;;;13.73;;
34459;SDS011;20704;51.260;22.558;2023-02-11T04:54:36;31.07;;;14.67;;
34459;SDS011;20704;51.260;22.558;2023-02-11T04:56:39;30.17;;;14.27;;
34459;SDS011;20704;51.260;22.558;2023-02-11T04:58:41;29.97;;;13.90;;
34459;SDS011;20704;51.260;22.558;2023-02-11T05:00:44;32.97;;;15.10;;
34459;SDS011;20704;51.260;22.558;2023-02-11T05:02:47;32.97;;;14.43;;
34459;SDS011;20704;51.260;22.558;2023-02-11T05:04:49;31.37;;;13.63;;
34459;SDS011;20704;51.260;22.558;2023-02-11T05:06:52;38.60;;;15.97;;
34459;SDS011;20704;51.260;22.558;2023-02-11T05:08:55;31.90;;;15.20;;
34459;SDS011;20704;51.260;22.558;2023-02-11T05:10:58;33.33;;;15.13;;
34459;SDS011;20704;51.260;22.558;2023-02-11T05:13:02;32.50;;;14.77;;
34459;SDS011;20704;51.260;22.558;2023-02-11T05:15:05;32.17;;;13.67;;
34459;SDS011;20704;51.260;22.558;2023-02-11T05:17:08;31.07;;;14.30;;
34459;SDS011;20704;51.260;22.558;2023-02-11T05:19:10;30.30;;;14.63;;
34459;SDS011;20704;51.260;22.558;2023-02-11T05:21:14;29.77;;;13.93;;
34459;SDS011;20704;51.260;22.558;2023-02-11T05:23:18;28.60;;;13.47;;
34459;SDS011;20704;51.260;22.558;2023-02-11T05:25:20;32.10;;;13.17;;
34459;SDS011;20704;51.260;22.558;2023-02-11T05:27:23;29.80;;;13.17;;
34459;SDS011;20704;51.260;22.558;2023-02-11T05:29:25;31.27;;;13.63;;
34459;SDS011;20704;51.260;22.558;2023-02-11T05:31:28;38.90;;;14.90;;
34459;SDS011;20704;51.260;22.558;2023-02-11T05:33:31;33.70;;;13.47;;
34459;SDS011;20704;51.260;22.558;2023-02-11T05:35:34;29.00;;;13.10;;
34459;SDS011;20704;51.260;22.558;2023-02-11T05:37:36;26.07;;;12.40;;
34459;SDS011;20704;51.260;22.558;2023-02-11T05:39:39;23.60;;;11.67;;
34459;SDS011;20704;51.260;22.558;2023-02-11T05:41:42;27.90;;;13.10;;
34459;SDS011;20704;51.260;22.558;2023-02-11T05:43:46;31.50;;;13.43;;
34459;SDS011;20704;51.260;22.558;2023-02-11T05:45:51;31.10;;;12.73;;
34459;SDS011;20704;51.260;22.558;2023-02-11T05:47:54;31.10;;;13.30;;
34459;SDS011;20704;51.260;22.558;2023-02-11T05:49:57;28.93;;;12.50;;
34459;SDS011;20704;51.260;22.558;2023-02-11T05:51:59;31.63;;;13.00;;
34459;SDS011;20704;51.260;22.558;2023-02-11T05:54:01;27.60;;;12.70;;
34459;SDS011;20704;51.260;22.558;2023-02-11T05:56:04;25.37;;;13.40;;
34459;SDS011;20704;51.260;22.558;2023-02-11T05:58:07;29.93;;;13.80;;
34459;SDS011;20704;51.260;22.558;2023-02-11T06:00:10;25.30;;;12.00;;
34459;SDS011;20704;51.260;22.558;2023-02-11T06:02:12;28.63;;;12.73;;
34459;SDS011;20704;51.260;22.558;2023-02-11T06:04:15;25.03;;;12.73;;
34459;SDS011;20704;51.260;22.558;2023-02-11T06:06:18;32.23;;;13.03;;
34459;SDS011;20704;51.260;22.558;2023-02-11T06:08:20;22.77;;;12.47;;
34459;SDS011;20704;51.260;22.558;2023-02-11T06:10:22;29.40;;;12.33;;
34459;SDS011;20704;51.260;22.558;2023-02-11T06:12:25;26.13;;;11.93;;
34459;SDS011;20704;51.260;22.558;2023-02-11T06:14:27;26.83;;;11.53;;
34459;SDS011;20704;51.260;22.558;2023-02-11T06:16:30;25.30;;;12.80;;
34459;SDS011;20704;51.260;22.558;2023-02-11T06:18:33;29.03;;;11.40;;
34459;SDS011;20704;51.260;22.558;2023-02-11T06:20:36;26.73;;;11.60;;
34459;SDS011;20704;51.260;22.558;2023-02-11T06:22:41;24.80;;;11.70;;
34459;SDS011;20704;51.260;22.558;2023-02-11T06:24:43;26.63;;;12.73;;
34459;SDS011;20704;51.260;22.558;2023-02-11T06:27:02;27.30;;;12.23;;
34459;SDS011;20704;51.260;22.558;2023-02-11T06:29:05;22.83;;;11.73;;
34459;SDS011;20704;51.260;22.558;2023-02-11T06:31:07;27.83;;;12.83;;
34459;SDS011;20704;51.260;22.558;2023-02-11T06:33:12;28.20;;;11.37;;
34459;SDS011;20704;51.260;22.558;2023-02-11T06:35:15;26.07;;;12.23;;
34459;SDS011;20704;51.260;22.558;2023-02-11T06:37:18;27.53;;;13.67;;
34459;SDS011;20704;51.260;22.558;2023-02-11T06:39:20;23.73;;;12.20;;
34459;SDS011;20704;51.260;22.558;2023-02-11T06:41:23;26.00;;;13.03;;
34459;SDS011;20704;51.260;22.558;2023-02-11T06:43:26;28.93;;;13.10;;
34459;SDS011;20704;51.260;22.558;2023-02-11T06:45:28;25.23;;;12.83;;
34459;SDS011;20704;51.260;22.558;2023-02-11T06:47:30;24.40;;;12.50;;
34459;SDS011;20704;51.260;22.558;2023-02-11T06:49:33;26.03;;;11.53;;
34459;SDS011;20704;51.260;22.558;2023-02-11T06:51:35;26.80;;;12.63;;
34459;SDS011;20704;51.260;22.558;2023-02-11T06:53:43;24.93;;;12.37;;
34459;SDS011;20704;51.260;22.558;2023-02-11T06:55:46;26.33;;;11.87;;
34459;SDS011;20704;51.260;22.558;2023-02-11T06:57:49;25.17;;;13.00;;
34459;SDS011;20704;51.260;22.558;2023-02-11T06:59:51;23.30;;;13.10;;
34459;SDS011;20704;51.260;22.558;2023-02-11T07:01:54;28.37;;;13.00;;
34459;SDS011;20704;51.260;22.558;2023-02-11T07:03:57;25.53;;;13.00;;
34459;SDS011;20704;51.260;22.558;2023-02-11T07:06:00;29.40;;;13.00;;
34459;SDS011;20704;51.260;22.558;2023-02-11T07:08:03;22.03;;;11.50;;
34459;SDS011;20704;51.260;22.558;2023-02-11T07:10:06;25.33;;;12.10;;
34459;SDS011;20704;51.260;22.558;2023-02-11T07:12:09;24.83;;;12.77;;
34459;SDS011;20704;51.260;22.558;2023-02-11T07:14:12;30.07;;;12.97;;
34459;SDS011;20704;51.260;22.558;2023-02-11T07:16:18;20.07;;;12.03;;
34459;SDS011;20704;51.260;22.558;2023-02-11T07:18:21;26.70;;;12.47;;
34459;SDS011;20704;51.260;22.558;2023-02-11T07:20:24;25.97;;;13.40;;
34459;SDS011;20704;51.260;22.558;2023-02-11T07:22:26;23.10;;;11.80;;
34459;SDS011;20704;51.260;22.558;2023-02-11T07:24:29;27.00;;;13.00;;
34459;SDS011;20704;51.260;22.558;2023-02-11T07:26:32;27.60;;;12.47;;
34459;SDS011;20704;51.260;22.558;2023-02-11T07:28:34;26.43;;;13.87;;
34459;SDS011;20704;51.260;22.558;2023-02-11T07:30:38;31.47;;;14.67;;
34459;SDS011;20704;51.260;22.558;2023-02-11T07:32:40;23.20;;;12.93;;
34459;SDS011;20704;51.260;22.558;2023-02-11T07:34:43;26.33;;;14.07;;
34459;SDS011;20704;51.260;22.558;2023-02-11T07:36:46;26.67;;;13.82;;
34459;SDS011;20704;51.260;22.558;2023-02-11T07:38:49;27.00;;;14.55;;
34459;SDS011;20704;51.260;22.558;2023-02-11T07:40:52;27.17;;;14.20;;
34459;SDS011;20704;51.260;22.558;2023-02-11T07:42:55;29.35;;;13.88;;
34459;SDS011;20704;51.260;22.558;2023-02-11T07:44:57;24.20;;;14.43;;
34459;SDS011;20704;51.260;22.558;2023-02-11T07:47:00;26.67;;;14.77;;
34459;SDS011;20704;51.260;22.558;2023-02-11T07:49:03;25.58;;;13.88;;
34459;SDS011;20704;51.260;22.558;2023-02-11T07:51:09;32.17;;;13.88;;
34459;SDS011;20704;51.260;22.558;2023-02-11T07:53:14;24.95;;;13.88;;
34459;SDS011;20704;51.260;22.558;2023-02-11T07:55:16;26.48;;;14.50;;
34459;SDS011;20704;51.260;22.558;2023-02-11T07:57:19;25.52;;;14.05;;
34459;SDS011;20704;51.260;22.558;2023-02-11T07:59:22;24.15;;;14.30;;
34459;SDS011;20704;51.260;22.558;2023-02-11T08:01:25;26.95;;;15.10;;
34459;SDS011;20704;51.260;22.558;2023-02-11T08:03:29;25.20;;;14.73;;
34459;SDS011;20704;51.260;22.558;2023-02-11T08:05:32;25.35;;;14.68;;
34459;SDS011;20704;51.260;22.558;2023-02-11T08:07:34;23.83;;;14.20;;
34459;SDS011;20704;51.260;22.558;2023-02-11T08:09:37;24.55;;;13.90;;
34459;SDS011;20704;51.260;22.558;2023-02-11T08:11:40;24.60;;;13.98;;
34459;SDS011;20704;51.260;22.558;2023-02-11T08:13:43;25.92;;;13.75;;
34459;SDS011;20704;51.260;22.558;2023-02-11T08:15:46;24.75;;;14.68;;
34459;SDS011;20704;51.260;22.558;2023-02-11T08:17:48;25.02;;;14.00;;
34459;SDS011;20704;51.260;22.558;2023-02-11T08:19:51;25.58;;;14.73;;
34459;SDS011;20704;51.260;22.558;2023-02-11T08:21:54;21.95;;;13.90;;
34459;SDS011;20704;51.260;22.558;2023-02-11T08:23:57;23.73;;;14.35;;
34459;SDS011;20704;51.260;22.558;2023-02-11T08:26:01;26.17;;;15.25;;
34459;SDS011;20704;51.260;22.558;2023-02-11T08:28:09;22.65;;;13.40;;
34459;SDS011;20704;51.260;22.558;2023-02-11T08:30:11;27.30;;;13.20;;
34459;SDS011;20704;51.260;22.558;2023-02-11T08:32:15;22.10;;;14.02;;
34459;SDS011;20704;51.260;22.558;2023-02-11T08:34:17;24.73;;;13.65;;
34459;SDS011;20704;51.260;22.558;2023-02-11T08:36:21;23.27;;;14.40;;
34459;SDS011;20704;51.260;22.558;2023-02-11T08:38:25;24.08;;;14.18;;
34459;SDS011;20704;51.260;22.558;2023-02-11T08:40:28;27.77;;;14.80;;
34459;SDS011;20704;51.260;22.558;2023-02-11T08:42:30;25.88;;;14.88;;
34459;SDS011;20704;51.260;22.558;2023-02-11T08:44:33;28.70;;;14.20;;
34459;SDS011;20704;51.260;22.558;2023-02-11T08:46:36;31.27;;;13.65;;
34459;SDS011;20704;51.260;22.558;2023-02-11T08:48:39;25.40;;;14.02;;
34459;SDS011;20704;51.260;22.558;2023-02-11T08:50:41;28.27;;;14.88;;
34459;SDS011;20704;51.260;22.558;2023-02-11T08:52:44;27.65;;;14.48;;
34459;SDS011;20704;51.260;22.558;2023-02-11T08:54:47;26.52;;;13.73;;
34459;SDS011;20704;51.260;22.558;2023-02-11T08:56:50;29.40;;;14.30;;
34459;SDS011;20704;51.260;22.558;2023-02-11T08:58:53;29.75;;;14.48;;
34459;SDS011;20704;51.260;22.558;2023-02-11T09:00:55;26.02;;;13.95;;
34459;SDS011;20704;51.260;22.558;2023-02-11T09:02:58;23.05;;;14.15;;
34459;SDS011;20704;51.260;22.558;2023-02-11T09:05:02;34.95;;;15.63;;
34459;SDS011;20704;51.260;22.558;2023-02-11T09:07:05;30.98;;;14.30;;
34459;SDS011;20704;51.260;22.558;2023-02-11T09:09:09;28.70;;;14.15;;
34459;SDS011;20704;51.260;22.558;2023-02-11T09:11:14;24.73;;;13.52;;
34459;SDS011;20704;51.260;22.558;2023-02-11T09:13:18;26.95;;;13.88;;
34459;SDS011;20704;51.260;22.558;2023-02-11T09:15:21;25.02;;;13.93;;
34459;SDS011;20704;51.260;22.558;2023-02-11T09:17:24;25.25;;;13.80;;
34459;SDS011;20704;51.260;22.558;2023-02-11T09:19:26;25.77;;;13.68;;
34459;SDS011;20704;51.260;22.558;2023-02-11T09:21:29;26.90;;;14.73;;
34459;SDS011;20704;51.260;22.558;2023-02-11T09:23:32;25.35;;;14.93;;
34459;SDS011;20704;51.260;22.558;2023-02-11T09:25:37;23.77;;;12.93;;
34459;SDS011;20704;51.260;22.558;2023-02-11T09:27:41;26.77;;;13.20;;
34459;SDS011;20704;51.260;22.558;2023-02-11T09:29:43;22.95;;;13.38;;
34459;SDS011;20704;51.260;22.558;2023-02-11T09:31:46;26.75;;;13.57;;
34459;SDS011;20704;51.260;22.558;2023-02-11T09:33:51;26.45;;;13.95;;
34459;SDS011;20704;51.260;22.558;2023-02-11T09:35:58;31.70;;;14.68;;
34459;SDS011;20704;51.260;22.558;2023-02-11T09:38:02;27.27;;;13.43;;
34459;SDS011;20704;51.260;22.558;2023-02-11T09:40:05;25.27;;;14.30;;
34459;SDS011;20704;51.260;22.558;2023-02-11T09:42:09;27.77;;;15.88;;
34459;SDS011;20704;51.260;22.558;2023-02-11T09:44:22;22.23;;;13.13;;
34459;SDS011;20704;51.260;22.558;2023-02-11T09:46:40;36.35;;;14.65;;
34459;SDS011;20704;51.260;22.558;2023-02-11T09:48:44;26.73;;;14.00;;
34459;SDS011;20704;51.260;22.558;2023-02-11T09:50:50;26.30;;;14.02;;
34459;SDS011;20704;51.260;22.558;2023-02-11T09:53:00;23.98;;;13.75;;
34459;SDS011;20704;51.260;22.558;2023-02-11T09:55:24;27.23;;;14.07;;
34459;SDS011;20704;51.260;22.558;2023-02-11T09:57:31;28.10;;;14.60;;
34459;SDS011;20704;51.260;22.558;2023-02-11T09:59:35;27.73;;;13.70;;
34459;SDS011;20704;51.260;22.558;2023-02-11T10:01:56;29.05;;;14.30;;
34459;SDS011;20704;51.260;22.558;2023-02-11T10:04:20;26.00;;;13.93;;
34459;SDS011;20704;51.260;22.558;2023-02-11T10:06:55;25.88;;;13.88;;
34459;SDS011;20704;51.260;22.558;2023-02-11T10:13:46;28.35;;;13.48;;
34459;SDS011;20704;51.260;22.558;2023-02-11T10:20:58;29.15;;;14.98;;
34459;SDS011;20704;51.260;22.558;2023-02-11T10:23:20;29.30;;;14.45;;
34459;SDS011;20704;51.260;22.558;2023-02-11T10:25:27;30.95;;;15.52;;
34459;SDS011;20704;51.260;22.558;2023-02-11T10:27:54;27.83;;;14.55;;
34459;SDS011;20704;51.260;22.558;2023-02-11T10:34:39;29.02;;;15.32;;
34459;SDS011;20704;51.260;22.558;2023-02-11T10:36:43;25.30;;;13.52;;
34459;SDS011;20704;51.260;22.558;2023-02-11T10:38:46;32.17;;;15.48;;
34459;SDS011;20704;51.260;22.558;2023-02-11T10:40:49;28.50;;;14.30;;
34459;SDS011;20704;51.260;22.558;2023-02-11T10:42:53;29.17;;;14.75;;
34459;SDS011;20704;51.260;22.558;2023-02-11T10:45:00;28.77;;;14.88;;
34459;SDS011;20704;51.260;22.558;2023-02-11T10:47:13;24.38;;;13.20;;
34459;SDS011;20704;51.260;22.558;2023-02-11T10:49:41;26.08;;;14.27;;
34459;SDS011;20704;51.260;22.558;2023-02-11T10:51:45;26.27;;;14.17;;
34459;SDS011;20704;51.260;22.558;2023-02-11T10:53:49;28.00;;;14.38;;
34459;SDS011;20704;51.260;22.558;2023-02-11T10:56:25;27.42;;;14.60;;
34459;SDS011;20704;51.260;22.558;2023-02-11T10:58:34;32.75;;;15.15;;
34459;SDS011;20704;51.260;22.558;2023-02-11T11:00:42;28.02;;;15.20;;
34459;SDS011;20704;51.260;22.558;2023-02-11T11:02:44;32.37;;;15.23;;
34459;SDS011;20704;51.260;22.558;2023-02-11T11:05:17;30.35;;;14.90;;
34459;SDS011;20704;51.260;22.558;2023-02-11T11:07:40;30.40;;;13.77;;
34459;SDS011;20704;51.260;22.558;2023-02-11T11:10:02;31.77;;;16.17;;
34459;SDS011;20704;51.260;22.558;2023-02-11T11:12:33;31.77;;;16.25;;
34459;SDS011;20704;51.260;22.558;2023-02-11T11:14:52;38.25;;;14.35;;
34459;SDS011;20704;51.260;22.558;2023-02-11T11:16:58;31.07;;;15.30;;
34459;SDS011;20704;51.260;22.558;2023-02-11T11:23:24;30.58;;;16.20;;
34459;SDS011;20704;51.260;22.558;2023-02-11T11:25:27;29.35;;;15.02;;
34459;SDS011;20704;51.260;22.558;2023-02-11T11:27:32;27.83;;;13.60;;
34459;SDS011;20704;51.260;22.558;2023-02-11T11:29:38;31.70;;;15.37;;
34459;SDS011;20704;51.260;22.558;2023-02-11T11:31:55;27.00;;;13.75;;
34459;SDS011;20704;51.260;22.558;2023-02-11T11:36:24;30.57;;;13.80;;
34459;SDS011;20704;51.260;22.558;2023-02-11T11:38:34;25.42;;;13.45;;
34459;SDS011;20704;51.260;22.558;2023-02-11T11:40:43;32.10;;;14.30;;
34459;SDS011;20704;51.260;22.558;2023-02-11T11:42:46;30.67;;;15.93;;
34459;SDS011;20704;51.260;22.558;2023-02-11T11:49:27;27.67;;;15.40;;
34459;SDS011;20704;51.260;22.558;2023-02-11T11:51:33;26.20;;;15.50;;
34459;SDS011;20704;51.260;22.558;2023-02-11T11:56:05;30.37;;;15.70;;
34459;SDS011;20704;51.260;22.558;2023-02-11T11:58:17;30.43;;;16.67;;
34459;SDS011;20704;51.260;22.558;2023-02-11T12:00:45;33.47;;;16.13;;
34459;SDS011;20704;51.260;22.558;2023-02-11T12:05:08;29.57;;;16.03;;
34459;SDS011;20704;51.260;22.558;2023-02-11T12:26:30;36.23;;;17.70;;
34459;SDS011;20704;51.260;22.558;2023-02-11T12:28:57;39.20;;;18.60;;
34459;SDS011;20704;51.260;22.558;2023-02-11T12:45:35;32.58;;;16.80;;
34459;SDS011;20704;51.260;22.558;2023-02-11T12:52:49;40.30;;;19.00;;
34459;SDS011;20704;51.260;22.558;2023-02-11T12:55:06;34.97;;;18.73;;
34459;SDS011;20704;51.260;22.558;2023-02-11T12:57:20;34.97;;;18.63;;
34459;SDS011;20704;51.260;22.558;2023-02-11T13:01:31;30.37;;;17.50;;
34459;SDS011;20704;51.260;22.558;2023-02-11T13:03:42;37.60;;;18.10;;
34459;SDS011;20704;51.260;22.558;2023-02-11T13:06:08;35.13;;;18.83;;
34459;SDS011;20704;51.260;22.558;2023-02-11T13:12:20;35.27;;;17.63;;
34459;SDS011;20704;51.260;22.558;2023-02-11T13:14:41;33.50;;;17.43;;
34459;SDS011;20704;51.260;22.558;2023-02-11T13:16:45;33.20;;;17.63;;
34459;SDS011;20704;51.260;22.558;2023-02-11T13:23:40;33.40;;;16.80;;
34459;SDS011;20704;51.260;22.558;2023-02-11T13:26:18;42.87;;;17.27;;
34459;SDS011;20704;51.260;22.558;2023-02-11T13:30:59;33.50;;;17.17;;
34459;SDS011;20704;51.260;22.558;2023-02-11T13:33:29;34.00;;;17.50;;
34459;SDS011;20704;51.260;22.558;2023-02-11T13:35:41;32.80;;;17.07;;
34459;SDS011;20704;51.260;22.558;2023-02-11T13:37:47;33.20;;;17.60;;
34459;SDS011;20704;51.260;22.558;2023-02-11T13:39:56;32.50;;;17.57;;
34459;SDS011;20704;51.260;22.558;2023-02-11T13:42:02;30.42;;;16.48;;
34459;SDS011;20704;51.260;22.558;2023-02-11T13:46:10;29.30;;;16.43;;
34459;SDS011;20704;51.260;22.558;2023-02-11T13:48:16;32.63;;;17.60;;
34459;SDS011;20704;51.260;22.558;2023-02-11T13:50:24;31.88;;;17.13;;
34459;SDS011;20704;51.260;22.558;2023-02-11T13:52:32;31.27;;;17.13;;
34459;SDS011;20704;51.260;22.558;2023-02-11T13:54:37;30.63;;;16.20;;
34459;SDS011;20704;51.260;22.558;2023-02-11T13:56:41;31.13;;;17.97;;
34459;SDS011;20704;51.260;22.558;2023-02-11T13:58:48;35.53;;;17.67;;
34459;SDS011;20704;51.260;22.558;2023-02-11T14:00:52;34.67;;;18.90;;
34459;SDS011;20704;51.260;22.558;2023-02-11T14:05:31;32.27;;;17.17;;